CheckWX is a tool to help pilots better visualize weather data.  It is not intended as a substitute for an official pre-flight weather briefing.

11:28:14 UTC

EBOS METAR
Ostend-Bruges International Airport
Ostend, Belgium
Current

38 mins ago

EBOS 221050Z 29009KT 9999 FEW025 19/11 Q1027 NOSIG
Observed
Aug-22 @ 10:50 UTC
Wind
  • 290° at 9 KTS
Visibility
10,000+ meters
Flight Rules
VFR
Cloud Levels
  • Few at 2,500' AGL
Temperature
19°C / 66°F
Dewpoint
11°C / 52°F
Humidity
60%
Altimeter
30.32" Hg
Pressure
1026.92 hPa
Previous

1 hour ago

EBOS 221020Z 28008KT 250V310 9999 FEW022 19/12 Q1026 NOSIG
Observed
Aug-22 @ 10:20 UTC
Wind
  • 280° at 8 KTS
Visibility
10,000+ meters
Flight Rules
VFR
Cloud Levels
  • Few at 2,200' AGL
Temperature
19°C / 66°F
Dewpoint
12°C / 54°F
Humidity
64%
Altimeter
30.3" Hg
Pressure
1025.92 hPa
Previous

2 hours ago

EBOS 220950Z 29009KT 9999 FEW020 19/12 Q1026 NOSIG
Observed
Aug-22 @ 09:50 UTC
Wind
  • 290° at 9 KTS
Visibility
10,000+ meters
Flight Rules
VFR
Cloud Levels
  • Few at 2,000' AGL
Temperature
19°C / 66°F
Dewpoint
12°C / 54°F
Humidity
64%
Altimeter
30.3" Hg
Pressure
1025.92 hPa